createdAt,value
2016-09-11T00:02:45.047Z,"    0"
2016-09-11T00:07:41.514Z,"    0"
2016-09-11T00:12:38.125Z,"    0"
2016-09-11T00:17:34.774Z,"    0"
2016-09-11T00:22:31.226Z,"    0"
2016-09-11T00:27:27.944Z,"    0"
2016-09-11T00:32:24.542Z,"    0"
2016-09-11T00:37:21.584Z,"    0"
2016-09-11T00:42:18.114Z,"    0"
2016-09-11T00:47:17.503Z,"    0"
2016-09-11T00:52:13.457Z,"    0"
2016-09-11T00:57:10.041Z,"    0"
2016-09-11T01:02:06.730Z,"    0"
2016-09-11T01:07:03.258Z,"    0"
2016-09-11T01:12:00.777Z,"    0"
2016-09-11T01:16:57.048Z,"    0"
2016-09-11T01:21:53.711Z,"    0"
2016-09-11T01:26:50.319Z,"    0"
2016-09-11T01:31:46.995Z,"    0"
2016-09-11T01:36:43.542Z,"    0"
2016-09-11T01:41:39.841Z,"    0"
2016-09-11T01:46:36.515Z,"    0"
2016-09-11T01:51:33.123Z,"    0"
2016-09-11T01:56:29.820Z,"    0"
2016-09-11T02:01:26.466Z,"    0"
2016-09-11T02:06:23.104Z,"    0"
2016-09-11T02:11:19.680Z,"    0"
2016-09-11T02:16:16.481Z,"    0"
2016-09-11T02:21:15.464Z,"    0"
2016-09-11T02:26:11.458Z,"    0"
2016-09-11T02:31:08.115Z,"    0"
2016-09-11T02:36:04.675Z,"    0"
2016-09-11T02:41:01.292Z,"    0"
2016-09-11T02:45:58.360Z,"    0"
2016-09-11T02:50:54.795Z,"    0"
2016-09-11T02:55:51.693Z,"    0"
2016-09-11T03:00:48.349Z,"    0"
2016-09-11T03:05:46.434Z,"    0"
2016-09-11T03:10:43.329Z,"    0"
2016-09-11T03:15:41.440Z,"    0"
2016-09-11T03:20:37.668Z,"    0"
2016-09-11T03:25:34.227Z,"    0"
2016-09-11T03:30:30.751Z,"    0"
2016-09-11T03:35:27.484Z,"    0"
2016-09-11T03:40:24.265Z,"    0"
2016-09-11T03:45:21.094Z,"    0"
2016-09-11T03:50:17.681Z,"    0"
2016-09-11T03:55:14.674Z,"    0"
2016-09-11T04:00:11.306Z,"    0"
2016-09-11T04:05:07.795Z,"    0"
2016-09-11T04:10:04.674Z,"    0"
2016-09-11T04:15:01.522Z,"    0"
2016-09-11T04:19:58.136Z,"    0"
2016-09-11T04:25:06.313Z,"    0"
2016-09-11T04:29:58.702Z,"    0"
2016-09-11T04:34:55.219Z,"    4"
2016-09-11T04:39:51.869Z,"    4"
2016-09-11T04:44:48.647Z,"    4"
2016-09-11T04:49:45.492Z,"   12"
2016-09-11T04:54:43.121Z,"   24"
2016-09-11T04:59:39.556Z,"   40"
2016-09-11T05:04:36.159Z,"   64"
2016-09-11T05:09:32.909Z,"  100"
2016-09-11T05:14:29.956Z,"  136"
2016-09-11T05:19:27.284Z,"  176"
2016-09-11T05:24:23.658Z,"  208"
2016-09-11T05:29:20.353Z,"  260"
2016-09-11T05:34:17.662Z,"  300"
2016-09-11T05:39:14.315Z,"  340"
2016-09-11T05:44:10.907Z,"  408"
2016-09-11T05:49:07.530Z,"  476"
2016-09-11T05:54:04.131Z,"  540"
2016-09-11T05:59:01.104Z,"  592"
2016-09-11T06:03:57.763Z,"  640"
2016-09-11T06:08:54.502Z,"  692"
2016-09-11T06:13:51.684Z,"  748"
2016-09-11T06:18:48.323Z,"  820"
2016-09-11T06:23:45.239Z,"  936"
2016-09-11T06:28:41.825Z," 1016"
2016-09-11T06:33:38.945Z," 1020"
2016-09-11T06:38:36.067Z," 1056"
2016-09-11T06:43:35.719Z," 1104"
2016-09-11T06:48:32.051Z," 1172"
2016-09-11T06:53:31.528Z," 1280"
2016-09-11T06:58:27.710Z," 1336"
2016-09-11T07:03:24.601Z," 1424"
2016-09-11T07:08:21.234Z," 1324"
2016-09-11T07:13:17.982Z," 1384"
2016-09-11T07:18:14.443Z," 1412"
2016-09-11T07:23:11.976Z," 1532"
2016-09-11T07:28:08.730Z," 1600"
2016-09-11T07:33:06.359Z," 1792"
2016-09-11T07:38:04.761Z," 2052"
2016-09-11T07:43:01.456Z," 2248"
2016-09-11T07:47:58.270Z," 2288"
2016-09-11T07:52:55.587Z," 2552"
2016-09-11T07:57:52.407Z," 3276"
2016-09-11T08:02:49.065Z," 3780"
2016-09-11T08:07:46.275Z," 7160"
2016-09-11T08:12:43.790Z," 9712"
2016-09-11T08:17:40.651Z,12680
2016-09-11T08:22:37.775Z,11868
2016-09-11T08:27:34.728Z," 9056"
2016-09-11T08:32:31.532Z," 7768"
2016-09-11T08:37:28.246Z," 7144"
2016-09-11T08:42:28.005Z," 7060"
2016-09-11T08:47:24.362Z," 3320"
2016-09-11T08:52:20.917Z," 2816"
2016-09-11T08:57:17.545Z," 2608"
2016-09-11T09:02:14.222Z," 2616"
2016-09-11T09:07:10.609Z," 2788"
2016-09-11T09:12:07.109Z," 2740"
2016-09-11T09:17:06.231Z," 2680"
2016-09-11T09:22:02.189Z," 2660"
2016-09-11T09:26:58.971Z," 2564"
2016-09-11T09:31:55.597Z," 2616"
2016-09-11T09:36:55.206Z," 2508"
2016-09-11T09:41:51.459Z," 2412"
2016-09-11T09:46:48.070Z," 2404"
2016-09-11T09:51:45.411Z," 2328"
2016-09-11T09:56:42.151Z," 2316"
2016-09-11T10:01:39.488Z," 2284"
2016-09-11T10:06:36.146Z," 2228"
2016-09-11T10:11:33.282Z," 2200"
2016-09-11T10:16:30.018Z," 2256"
2016-09-11T10:21:26.688Z," 2144"
2016-09-11T10:26:23.327Z," 2156"
2016-09-11T10:31:20.315Z," 2100"
2016-09-11T10:36:16.921Z," 2044"
2016-09-11T10:41:13.537Z," 2044"
2016-09-11T10:46:10.507Z," 2024"
2016-09-11T10:51:06.864Z," 1968"
2016-09-11T10:56:03.562Z," 1940"
2016-09-11T11:01:00.578Z," 1860"
2016-09-11T11:05:57.113Z," 1772"
2016-09-11T11:10:53.843Z," 1744"
2016-09-11T11:15:50.518Z," 1700"
2016-09-11T11:20:47.150Z," 2048"
2016-09-11T11:25:43.911Z," 1952"
2016-09-11T11:30:40.765Z," 1908"
2016-09-11T11:35:37.434Z," 1772"
2016-09-11T11:40:34.109Z," 1972"
2016-09-11T11:45:30.831Z," 1844"
2016-09-11T11:50:27.552Z," 1804"
2016-09-11T11:55:24.129Z," 1628"
2016-09-11T12:00:20.761Z," 1608"
2016-09-11T12:05:17.325Z," 1600"
2016-09-11T12:10:13.899Z," 1636"
2016-09-11T12:15:10.870Z," 1852"
2016-09-11T12:20:07.532Z," 1884"
2016-09-11T12:25:04.381Z," 1996"
2016-09-11T12:30:01.387Z," 2100"
2016-09-11T12:34:58.214Z," 2080"
2016-09-11T12:39:54.878Z," 1912"
2016-09-11T12:44:51.478Z," 1748"
2016-09-11T12:49:48.123Z," 1624"
2016-09-11T12:54:44.982Z," 1636"
2016-09-11T12:59:41.609Z," 1576"
2016-09-11T13:04:38.441Z," 1520"
2016-09-11T13:09:35.121Z," 1500"
2016-09-11T13:14:31.826Z," 1496"
2016-09-11T13:19:28.745Z," 1516"
2016-09-11T13:24:25.527Z," 1512"
2016-09-11T13:29:22.285Z," 1568"
2016-09-11T13:34:22.351Z," 1592"
2016-09-11T13:39:18.728Z," 1576"
2016-09-11T13:44:15.218Z," 1536"
2016-09-11T13:49:11.906Z," 1444"
2016-09-11T13:54:08.707Z," 1448"
2016-09-11T13:59:07.617Z," 1396"
2016-09-11T14:04:04.037Z," 1376"
2016-09-11T14:09:00.770Z," 1356"
2016-09-11T14:13:57.381Z," 1316"
2016-09-11T14:18:54.053Z," 1304"
2016-09-11T14:23:50.756Z," 1320"
2016-09-11T14:28:47.388Z," 1264"
2016-09-11T14:33:46.292Z," 1260"
2016-09-11T14:38:42.473Z," 1252"
2016-09-11T14:43:39.303Z," 1220"
2016-09-11T14:48:36.251Z," 1196"
2016-09-11T14:53:33.417Z," 1140"
2016-09-11T14:58:30.211Z," 1064"
2016-09-11T15:03:27.353Z,"  996"
2016-09-11T15:08:25.484Z,"  944"
2016-09-11T15:13:22.406Z,"  872"
2016-09-11T15:18:19.126Z,"  824"
2016-09-11T15:23:15.901Z,"  776"
2016-09-11T15:28:12.620Z,"  724"
2016-09-11T15:33:11.860Z,"  672"
2016-09-11T15:38:07.895Z,"  644"
2016-09-11T15:43:05.001Z,"  616"
2016-09-11T15:48:01.700Z,"  592"
2016-09-11T15:53:01.405Z,"  556"
2016-09-11T15:57:57.345Z,"  532"
2016-09-11T16:02:53.926Z,"  512"
2016-09-11T16:07:50.563Z,"  520"
2016-09-11T16:12:47.017Z,"  516"
2016-09-11T16:17:43.615Z,"  500"
2016-09-11T16:22:40.096Z,"  504"
2016-09-11T16:27:36.905Z,"  500"
2016-09-11T16:32:33.579Z,"  496"
2016-09-11T16:37:30.131Z,"  516"
2016-09-11T16:42:26.839Z,"  500"
2016-09-11T16:47:23.390Z,"  444"
2016-09-11T16:52:20.751Z,"  392"
2016-09-11T16:57:17.458Z,"  368"
2016-09-11T17:02:14.480Z,"  332"
2016-09-11T17:07:11.323Z,"  288"
2016-09-11T17:12:08.326Z,"  248"
2016-09-11T17:17:07.453Z,"  232"
2016-09-11T17:22:03.352Z,"  208"
2016-09-11T17:27:00.280Z,"  180"
2016-09-11T17:31:59.261Z,"  152"
2016-09-11T17:36:55.653Z,"  124"
2016-09-11T17:41:52.266Z,"   92"
2016-09-11T17:46:48.790Z,"   60"
2016-09-11T17:51:45.334Z,"   36"
2016-09-11T17:56:42.132Z,"   24"
2016-09-11T18:01:38.661Z,"   12"
2016-09-11T18:06:35.535Z,"    4"
2016-09-11T18:11:32.548Z,"    4"
2016-09-11T18:16:29.461Z,"    0"
2016-09-11T18:21:26.074Z,"    0"
2016-09-11T18:26:22.757Z,"    0"
2016-09-11T18:31:19.345Z,"    0"
2016-09-11T18:36:15.941Z,"    0"
2016-09-11T18:41:12.525Z,"    0"
2016-09-11T18:46:09.178Z,"    0"
2016-09-11T18:51:06.184Z,"    0"
2016-09-11T18:56:02.814Z,"    0"
2016-09-11T19:00:59.543Z,"    0"
2016-09-11T19:05:56.108Z,"    0"
2016-09-11T19:10:52.693Z,"    0"
2016-09-11T19:15:49.846Z,"    0"
2016-09-11T19:20:46.826Z,"    0"
2016-09-11T19:25:43.539Z,"    0"
2016-09-11T19:30:40.245Z,"    0"
2016-09-11T19:35:36.919Z,"    0"
2016-09-11T19:40:33.575Z,"    0"
2016-09-11T19:45:30.535Z,"    0"
2016-09-11T19:50:27.231Z,"    0"
2016-09-11T19:55:23.910Z,"    0"
2016-09-11T20:00:20.516Z,"    0"
2016-09-11T20:05:17.121Z,"    0"
2016-09-11T20:10:13.698Z,"    0"
2016-09-11T20:15:10.220Z,"    0"
2016-09-11T20:20:06.912Z,"   24"
2016-09-11T20:25:03.481Z,"   24"
2016-09-11T20:30:00.309Z,"   12"
2016-09-11T20:34:57.287Z,"   12"
2016-09-11T20:39:53.865Z,"    0"
2016-09-11T20:44:50.525Z,"    0"
2016-09-11T20:49:47.076Z,"    0"
2016-09-11T20:54:43.929Z,"    0"
2016-09-11T20:59:40.735Z,"    0"
2016-09-11T21:04:37.272Z,"    0"
2016-09-11T21:09:33.793Z,"    0"
2016-09-11T21:14:30.643Z,"    0"
2016-09-11T21:19:27.310Z,"    0"
2016-09-11T21:24:23.878Z,"    0"
2016-09-11T21:29:20.475Z,"    0"
2016-09-11T21:34:18.738Z,"    0"
2016-09-11T21:39:14.982Z,"    0"
2016-09-11T21:44:12.072Z,"    0"
2016-09-11T21:49:08.758Z,"    0"
2016-09-11T21:54:05.450Z,"    0"
2016-09-11T21:59:02.273Z,"    0"
2016-09-11T22:03:58.689Z,"    0"
2016-09-11T22:08:55.080Z,"    0"
2016-09-11T22:13:52.060Z,"    0"
2016-09-11T22:18:48.685Z,"    0"
2016-09-11T22:23:45.192Z,"    0"
2016-09-11T22:28:41.836Z,"    0"
2016-09-11T22:33:39.503Z,"    0"
2016-09-11T22:38:36.394Z,"    0"
2016-09-11T22:43:32.813Z,"    0"
2016-09-11T22:48:29.316Z,"    0"
2016-09-11T22:53:25.986Z,"    0"
2016-09-11T22:58:22.484Z,"    0"
2016-09-11T23:03:19.101Z,"    0"
2016-09-11T23:08:15.657Z,"    0"
2016-09-11T23:13:12.541Z,"    0"
2016-09-11T23:18:09.046Z,"    0"
2016-09-11T23:23:05.556Z,"    0"
2016-09-11T23:28:02.277Z,"    0"
2016-09-11T23:32:58.853Z,"    0"
2016-09-11T23:37:55.531Z,"    0"
2016-09-11T23:42:52.539Z,"    0"
2016-09-11T23:47:49.117Z,"    0"
2016-09-11T23:52:45.989Z,"    0"
2016-09-11T23:57:42.598Z,"    0"
